Time;durP1;ratioP1;P1;durP2;ratioP2;P2;SDS_P1;SDS_P2;PMS_P1;PMS_P2;Temp;Humidity;BMP_temperature;BMP_pressure;BME280_temperature;BME280_humidity;BME280_pressure;Samples;Min_cycle;Max_cycle;Signal;HPM_P1;HPM_P2
2021/03/10 00:02:26;;;;;;;23.80;13.53;;;;;;;;;;10556219;28;20208;-80
2021/03/10 00:07:38;;;;;;;28.57;16.13;;;;;;;;;;10547675;28;20219;-80
2021/03/10 00:12:40;;;;;;;26.23;16.40;;;;;;;;;;10546890;28;20691;-82
2021/03/10 00:17:43;;;;;;;30.27;16.57;;;;;;;;;;10561410;28;20258;-80
2021/03/10 00:22:46;;;;;;;26.87;15.73;;;;;;;;;;10532623;28;20216;-81
2021/03/10 00:27:48;;;;;;;24.40;15.40;;;;;;;;;;10556156;28;20216;-79
2021/03/10 00:32:50;;;;;;;26.00;15.70;;;;;;;;;;10562636;28;20199;-81
2021/03/10 00:38:07;;;;;;;27.03;16.50;;;;;;;;;;10616702;27;20293;-81
2021/03/10 00:43:09;;;;;;;27.00;15.43;;;;;;;;;;10593620;28;20207;-81
2021/03/10 00:48:10;;;;;;;25.47;15.87;;;;;;;;;;10581478;28;20316;-79
2021/03/10 00:53:13;;;;;;;27.63;15.50;;;;;;;;;;10604446;28;20206;-80
2021/03/10 00:58:15;;;;;;;28.83;17.77;;;;;;;;;;10610011;27;20214;-78
2021/03/10 01:03:16;;;;;;;28.07;14.90;;;;;;;;;;10618590;27;20199;-79
2021/03/10 01:08:23;;;;;;;28.83;16.67;;;;;;;;;;10629064;27;20226;-80
2021/03/10 01:13:25;;;;;;;28.10;17.43;;;;;;;;;;10631912;27;20299;-82
2021/03/10 01:18:26;;;;;;;32.40;18.57;;;;;;;;;;10608289;27;20327;-79
2021/03/10 01:23:29;;;;;;;30.60;17.90;;;;;;;;;;10610473;27;20191;-81
2021/03/10 01:28:31;;;;;;;30.80;18.70;;;;;;;;;;10603669;27;20222;-82
2021/03/10 01:33:32;;;;;;;29.30;18.00;;;;;;;;;;10610856;27;20178;-82
2021/03/10 01:38:46;;;;;;;30.77;18.30;;;;;;;;;;10630118;27;20218;-82
2021/03/10 01:43:47;;;;;;;31.23;18.73;;;;;;;;;;10593536;27;20221;-81
2021/03/10 01:48:49;;;;;;;28.13;17.60;;;;;;;;;;10601110;27;20210;-81
2021/03/10 01:53:51;;;;;;;32.10;19.23;;;;;;;;;;10607361;27;20226;-80
2021/03/10 01:58:53;;;;;;;27.93;17.23;;;;;;;;;;10600235;27;20227;-80
2021/03/10 02:03:55;;;;;;;25.57;13.73;;;;;;;;;;10618107;27;20191;-80
2021/03/10 02:09:10;;;;;;;28.57;15.87;;;;;;;;;;10598366;27;20215;-80
2021/03/10 02:14:13;;;;;;;36.40;20.27;;;;;;;;;;10595677;27;20202;-79
2021/03/10 02:19:30;;;;;;;31.87;19.07;;;;;;;;;;10617473;27;20261;-81
2021/03/10 02:24:39;;;;;;;30.83;18.80;;;;;;;;;;10595087;27;20620;-80
2021/03/10 02:29:43;;;;;;;30.17;18.23;;;;;;;;;;10612562;27;20230;-81
2021/03/10 02:34:45;;;;;;;32.60;19.87;;;;;;;;;;10613095;27;20187;-79
2021/03/10 02:39:47;;;;;;;34.07;19.13;;;;;;;;;;10607913;27;20215;-79
2021/03/10 02:44:51;;;;;;;27.63;14.37;;;;;;;;;;10616618;27;20211;-79
2021/03/10 02:49:53;;;;;;;34.30;18.50;;;;;;;;;;10606387;27;20207;-80
2021/03/10 02:54:55;;;;;;;33.37;19.40;;;;;;;;;;10601770;27;20246;-80
2021/03/10 02:59:58;;;;;;;32.57;19.80;;;;;;;;;;10594734;27;20751;-80
2021/03/10 03:05:00;;;;;;;29.23;16.30;;;;;;;;;;10600584;27;20619;-81
2021/03/10 03:10:06;;;;;;;29.33;16.53;;;;;;;;;;10598111;28;20215;-83
2021/03/10 03:15:10;;;;;;;33.77;20.37;;;;;;;;;;10579816;27;20277;-81
2021/03/10 03:20:12;;;;;;;26.83;13.93;;;;;;;;;;10602068;27;20282;-80
2021/03/10 03:25:15;;;;;;;33.10;19.27;;;;;;;;;;10584240;27;20196;-79
2021/03/10 03:30:18;;;;;;;34.97;20.40;;;;;;;;;;10591362;27;20207;-81
2021/03/10 03:35:20;;;;;;;35.27;20.97;;;;;;;;;;10583394;27;20190;-80
2021/03/10 03:40:23;;;;;;;29.07;15.40;;;;;;;;;;10592118;27;20704;-80
2021/03/10 03:45:26;;;;;;;22.73;12.70;;;;;;;;;;10572569;27;20211;-79
2021/03/10 03:50:28;;;;;;;36.77;21.50;;;;;;;;;;10593574;27;20708;-79
2021/03/10 03:55:30;;;;;;;34.80;20.20;;;;;;;;;;10587715;27;20263;-79
2021/03/10 04:00:33;;;;;;;35.27;19.57;;;;;;;;;;10584263;27;20241;-80
2021/03/10 04:05:34;;;;;;;34.30;20.17;;;;;;;;;;10591240;27;20342;-81
2021/03/10 04:10:41;;;;;;;37.37;21.03;;;;;;;;;;10576325;27;20228;-82
2021/03/10 04:15:44;;;;;;;36.33;21.93;;;;;;;;;;10580783;27;20193;-83
2021/03/10 04:20:46;;;;;;;35.27;20.87;;;;;;;;;;10575817;28;20272;-80
2021/03/10 04:25:48;;;;;;;31.70;18.37;;;;;;;;;;10590464;27;20612;-80
2021/03/10 04:30:50;;;;;;;37.97;22.73;;;;;;;;;;10572222;27;20241;-79
2021/03/10 04:35:52;;;;;;;34.37;21.37;;;;;;;;;;10570512;27;20216;-78
2021/03/10 04:41:03;;;;;;;36.77;22.57;;;;;;;;;;10600898;28;20238;-80
2021/03/10 04:46:06;;;;;;;38.43;22.47;;;;;;;;;;10601194;28;20216;-79
2021/03/10 04:51:08;;;;;;;39.67;22.17;;;;;;;;;;10597318;28;20217;-80
2021/03/10 04:56:09;;;;;;;29.57;14.80;;;;;;;;;;10601686;28;20213;-78
2021/03/10 05:01:12;;;;;;;34.73;18.93;;;;;;;;;;10613865;28;20230;-81
2021/03/10 05:06:14;;;;;;;40.43;24.80;;;;;;;;;;10594281;28;20216;-80
2021/03/10 05:11:26;;;;;;;39.60;23.30;;;;;;;;;;10602795;28;20214;-80
2021/03/10 05:16:29;;;;;;;38.57;22.67;;;;;;;;;;10583408;28;20197;-79
2021/03/10 05:21:31;;;;;;;34.50;18.67;;;;;;;;;;10586639;28;20218;-80
2021/03/10 05:26:32;;;;;;;39.13;23.47;;;;;;;;;;10599346;28;20195;-81
2021/03/10 05:31:35;;;;;;;40.30;22.97;;;;;;;;;;10605753;28;20226;-80
2021/03/10 05:36:37;;;;;;;41.77;24.80;;;;;;;;;;10619425;28;20190;-82
2021/03/10 05:41:55;;;;;;;37.00;20.43;;;;;;;;;;10617833;27;20236;-82
2021/03/10 05:46:58;;;;;;;42.27;23.40;;;;;;;;;;10622474;27;20195;-80
2021/03/10 05:52:03;;;;;;;41.47;24.80;;;;;;;;;;10605484;27;20631;-81
2021/03/10 05:57:05;;;;;;;41.37;24.17;;;;;;;;;;10593459;27;20274;-81
2021/03/10 06:02:08;;;;;;;39.17;21.50;;;;;;;;;;10591521;27;20280;-80
2021/03/10 06:07:19;;;;;;;40.27;23.33;;;;;;;;;;10596107;27;20316;-80
2021/03/10 06:12:21;;;;;;;38.97;23.50;;;;;;;;;;10594811;27;20210;-79
2021/03/10 06:17:23;;;;;;;37.43;21.57;;;;;;;;;;10573823;27;20204;-80
2021/03/10 06:22:33;;;;;;;32.93;19.07;;;;;;;;;;10584979;27;20267;-79
2021/03/10 06:27:35;;;;;;;38.70;22.87;;;;;;;;;;10589179;27;20203;-81
2021/03/10 06:32:41;;;;;;;34.83;19.07;;;;;;;;;;10589449;27;20221;-79
2021/03/10 06:37:43;;;;;;;37.10;21.73;;;;;;;;;;10589092;27;20295;-80
2021/03/10 06:42:52;;;;;;;38.37;23.27;;;;;;;;;;10602101;27;20215;-80
2021/03/10 06:47:55;;;;;;;38.90;22.27;;;;;;;;;;10587193;28;20268;-80
2021/03/10 06:52:56;;;;;;;28.63;16.00;;;;;;;;;;10589948;27;20203;-81
2021/03/10 06:58:03;;;;;;;37.30;20.77;;;;;;;;;;10587281;27;20199;-82
2021/03/10 07:03:06;;;;;;;33.60;19.87;;;;;;;;;;10612295;27;20250;-78
2021/03/10 07:08:09;;;;;;;31.63;17.63;;;;;;;;;;10585110;28;20214;-80
2021/03/10 07:13:10;;;;;;;35.70;22.03;;;;;;;;;;10602175;27;20189;-82
2021/03/10 07:18:13;;;;;;;26.87;15.90;;;;;;;;;;10587962;28;20238;-82
2021/03/10 07:23:17;;;;;;;30.63;20.67;;;;;;;;;;10594614;27;20199;-80
2021/03/10 07:28:20;;;;;;;31.07;18.87;;;;;;;;;;10572597;27;20233;-80
2021/03/10 07:33:23;;;;;;;32.90;20.43;;;;;;;;;;10567249;28;20667;-77
2021/03/10 07:38:37;;;;;;;26.43;15.60;;;;;;;;;;10568674;27;20211;-81
2021/03/10 07:43:39;;;;;;;33.30;19.67;;;;;;;;;;10567942;27;20195;-79
2021/03/10 07:48:42;;;;;;;34.87;21.00;;;;;;;;;;10575829;27;20218;-78
2021/03/10 07:53:44;;;;;;;27.80;16.70;;;;;;;;;;10592114;27;20205;-78
2021/03/10 07:58:45;;;;;;;31.70;17.37;;;;;;;;;;10591216;27;20255;-79
2021/03/10 08:03:48;;;;;;;24.67;15.43;;;;;;;;;;10606088;27;20368;-77
2021/03/10 08:08:50;;;;;;;29.37;15.63;;;;;;;;;;10609337;27;20214;-79
2021/03/10 08:13:58;;;;;;;31.17;18.63;;;;;;;;;;10586832;27;20210;-80
2021/03/10 08:19:03;;;;;;;29.37;16.50;;;;;;;;;;10602493;27;20221;-79
2021/03/10 08:24:06;;;;;;;33.13;20.50;;;;;;;;;;10593952;27;20194;-78
2021/03/10 08:29:08;;;;;;;33.00;18.53;;;;;;;;;;10566133;27;20237;-78
2021/03/10 08:34:10;;;;;;;32.50;19.20;;;;;;;;;;10574905;27;20619;-79
2021/03/10 08:39:13;;;;;;;33.13;19.97;;;;;;;;;;10567027;28;20636;-79
2021/03/10 08:44:15;;;;;;;34.47;20.47;;;;;;;;;;10549320;28;20218;-78
2021/03/10 08:49:19;;;;;;;32.03;19.73;;;;;;;;;;10570423;28;21058;-79
2021/03/10 08:54:20;;;;;;;33.33;20.23;;;;;;;;;;10560243;28;20264;-79
2021/03/10 08:59:33;;;;;;;35.23;20.77;;;;;;;;;;10567016;28;20590;-81
2021/03/10 09:04:35;;;;;;;37.33;20.63;;;;;;;;;;10564075;28;20222;-80
2021/03/10 09:09:37;;;;;;;35.30;20.47;;;;;;;;;;10561030;28;20900;-79
2021/03/10 09:14:39;;;;;;;33.30;19.57;;;;;;;;;;10565872;28;20198;-83
2021/03/10 09:19:44;;;;;;;36.37;21.33;;;;;;;;;;10600571;27;20366;-81
2021/03/10 09:24:50;;;;;;;35.27;20.57;;;;;;;;;;10592722;27;20248;-79
2021/03/10 09:29:53;;;;;;;30.73;17.93;;;;;;;;;;10580919;28;20255;-79
2021/03/10 09:34:56;;;;;;;33.40;19.57;;;;;;;;;;10569245;27;20217;-81
2021/03/10 09:40:04;;;;;;;31.13;18.93;;;;;;;;;;10583025;27;20234;-79
2021/03/10 09:45:06;;;;;;;33.67;19.37;;;;;;;;;;10584832;27;20261;-79
2021/03/10 09:50:10;;;;;;;30.23;18.47;;;;;;;;;;10601509;27;20219;-77
2021/03/10 09:55:11;;;;;;;19.63;10.03;;;;;;;;;;10565816;27;20195;-78
2021/03/10 10:00:20;;;;;;;27.70;17.50;;;;;;;;;;10587135;27;20210;-80
2021/03/10 10:05:26;;;;;;;27.23;16.97;;;;;;;;;;10577102;28;20274;-78
2021/03/10 10:10:29;;;;;;;28.17;17.83;;;;;;;;;;10584994;27;20224;-79
2021/03/10 10:15:32;;;;;;;29.67;17.87;;;;;;;;;;10564957;28;20784;-79
2021/03/10 10:20:36;;;;;;;27.67;16.33;;;;;;;;;;10576103;27;20218;-82
2021/03/10 10:25:38;;;;;;;27.57;17.17;;;;;;;;;;10577535;27;20275;-78
2021/03/10 10:30:40;;;;;;;26.23;16.00;;;;;;;;;;10576686;27;20210;-78
2021/03/10 10:35:42;;;;;;;26.03;16.47;;;;;;;;;;10565441;27;20621;-79
2021/03/10 10:40:44;;;;;;;24.57;15.00;;;;;;;;;;10576415;27;20604;-79
2021/03/10 10:45:45;;;;;;;24.37;15.20;;;;;;;;;;10575762;27;20195;-78
2021/03/10 10:50:48;;;;;;;24.23;14.17;;;;;;;;;;10563842;27;20277;-78
2021/03/10 10:55:50;;;;;;;23.03;13.90;;;;;;;;;;10580641;27;20198;-79
2021/03/10 11:00:51;;;;;;;25.27;14.47;;;;;;;;;;10564647;28;20222;-78
2021/03/10 11:05:54;;;;;;;24.17;14.47;;;;;;;;;;10575098;27;20272;-79
2021/03/10 11:10:55;;;;;;;23.33;14.40;;;;;;;;;;10579387;27;20293;-80
2021/03/10 11:16:12;;;;;;;22.13;14.33;;;;;;;;;;10583859;27;20250;-79
2021/03/10 11:21:15;;;;;;;22.30;14.47;;;;;;;;;;10567060;28;20298;-79
2021/03/10 11:26:19;;;;;;;22.40;13.73;;;;;;;;;;10576086;27;20215;-78
2021/03/10 11:31:21;;;;;;;21.20;14.30;;;;;;;;;;10582850;27;21162;-79
2021/03/10 11:36:23;;;;;;;22.07;14.23;;;;;;;;;;10585224;27;20195;-79
2021/03/10 11:41:25;;;;;;;23.17;13.70;;;;;;;;;;10582184;27;20222;-80
2021/03/10 11:46:31;;;;;;;22.97;14.23;;;;;;;;;;10577803;27;20225;-83
2021/03/10 11:51:34;;;;;;;23.90;14.57;;;;;;;;;;10569765;27;20211;-80
2021/03/10 11:56:36;;;;;;;30.30;17.53;;;;;;;;;;10602479;27;20190;-81
2021/03/10 12:01:38;;;;;;;24.73;14.50;;;;;;;;;;10600709;27;20311;-81
2021/03/10 12:06:42;;;;;;;24.20;14.37;;;;;;;;;;10581888;28;20535;-80
2021/03/10 12:11:45;;;;;;;25.20;14.60;;;;;;;;;;10583488;27;20242;-78
2021/03/10 12:16:56;;;;;;;26.53;15.60;;;;;;;;;;10588417;27;20196;-81
2021/03/10 12:21:59;;;;;;;25.87;14.80;;;;;;;;;;10600317;27;20214;-81
2021/03/10 12:27:06;;;;;;;23.50;13.27;;;;;;;;;;10579173;27;20190;-81
2021/03/10 12:32:08;;;;;;;21.80;12.90;;;;;;;;;;10595264;28;20225;-80
2021/03/10 12:37:12;;;;;;;23.47;13.07;;;;;;;;;;10590093;27;20244;-80
2021/03/10 12:42:14;;;;;;;20.67;11.77;;;;;;;;;;10600085;27;20222;-81
2021/03/10 12:47:18;;;;;;;18.53;11.53;;;;;;;;;;10590367;28;20211;-80
2021/03/10 12:52:20;;;;;;;18.87;12.20;;;;;;;;;;10605907;27;20760;-79
2021/03/10 12:57:22;;;;;;;17.53;11.50;;;;;;;;;;10598238;27;20212;-80
2021/03/10 13:02:24;;;;;;;19.03;12.10;;;;;;;;;;10595060;27;20219;-81
2021/03/10 13:07:26;;;;;;;20.03;14.97;;;;;;;;;;10599436;27;20445;-80
2021/03/10 13:12:31;;;;;;;18.57;12.63;;;;;;;;;;10604312;27;20589;-79
2021/03/10 13:17:45;;;;;;;18.77;10.53;;;;;;;;;;10605784;27;20197;-80
2021/03/10 13:22:50;;;;;;;17.90;11.57;;;;;;;;;;10619463;27;20293;-82
2021/03/10 13:27:52;;;;;;;19.03;11.00;;;;;;;;;;10608999;27;20198;-79
2021/03/10 13:32:54;;;;;;;17.60;11.13;;;;;;;;;;10608393;27;20206;-80
2021/03/10 13:37:57;;;;;;;16.23;10.30;;;;;;;;;;10601792;27;20285;-79
2021/03/10 13:43:00;;;;;;;18.10;10.73;;;;;;;;;;10604956;27;20211;-80
2021/03/10 13:48:05;;;;;;;16.70;10.43;;;;;;;;;;10610876;27;20195;-80
2021/03/10 13:53:10;;;;;;;17.23;10.43;;;;;;;;;;10585506;27;20331;-79
2021/03/10 13:58:12;;;;;;;18.07;11.33;;;;;;;;;;10589623;27;20195;-80
2021/03/10 14:03:14;;;;;;;18.17;11.13;;;;;;;;;;10577980;27;20309;-79
2021/03/10 14:08:17;;;;;;;18.70;9.97;;;;;;;;;;10599167;27;20233;-79
2021/03/10 14:13:18;;;;;;;16.47;10.70;;;;;;;;;;10581383;27;20195;-78
2021/03/10 14:18:31;;;;;;;15.47;9.90;;;;;;;;;;10568690;28;20218;-79
2021/03/10 14:23:33;;;;;;;17.83;10.40;;;;;;;;;;10579510;27;20219;-79
2021/03/10 14:28:35;;;;;;;17.67;9.93;;;;;;;;;;10585654;27;20241;-79
2021/03/10 14:33:37;;;;;;;17.07;10.73;;;;;;;;;;10598943;27;20194;-80
2021/03/10 14:38:41;;;;;;;18.13;9.47;;;;;;;;;;10578863;27;20219;-79
2021/03/10 14:43:43;;;;;;;20.00;11.47;;;;;;;;;;10587250;27;20246;-78
2021/03/10 14:48:51;;;;;;;15.60;8.37;;;;;;;;;;10585488;27;20237;-78
2021/03/10 14:53:54;;;;;;;17.87;8.90;;;;;;;;;;10586519;27;20191;-78
2021/03/10 14:58:56;;;;;;;17.40;11.00;;;;;;;;;;10571934;27;20718;-78
2021/03/10 15:03:57;;;;;;;17.40;10.23;;;;;;;;;;10581713;27;20223;-77
2021/03/10 15:09:00;;;;;;;18.60;9.80;;;;;;;;;;10582731;27;20295;-78
2021/03/10 15:14:06;;;;;;;18.67;9.17;;;;;;;;;;10550572;28;20194;-79
2021/03/10 15:19:13;;;;;;;19.23;10.83;;;;;;;;;;10574388;27;21171;-78
2021/03/10 15:24:15;;;;;;;19.30;10.90;;;;;;;;;;10574668;27;20203;-78
2021/03/10 15:29:18;;;;;;;22.23;11.90;;;;;;;;;;10573933;27;20310;-80
2021/03/10 15:34:19;;;;;;;17.77;9.87;;;;;;;;;;10560058;28;20199;-79
2021/03/10 15:39:22;;;;;;;16.73;7.37;;;;;;;;;;10571351;27;20282;-80
2021/03/10 15:44:24;;;;;;;17.90;10.07;;;;;;;;;;10572686;27;20361;-78
2021/03/10 15:49:39;;;;;;;17.00;8.60;;;;;;;;;;10586476;27;20218;-80
2021/03/10 15:54:42;;;;;;;18.87;10.50;;;;;;;;;;10562770;27;20192;-79
2021/03/10 15:59:44;;;;;;;16.83;9.53;;;;;;;;;;10602552;27;20261;-79
2021/03/10 16:04:45;;;;;;;19.00;10.27;;;;;;;;;;10577365;27;20260;-81
2021/03/10 16:09:48;;;;;;;19.63;10.97;;;;;;;;;;10599998;27;20318;-79
2021/03/10 16:14:50;;;;;;;20.07;10.90;;;;;;;;;;10567042;28;20224;-78
2021/03/10 16:20:04;;;;;;;18.43;11.10;;;;;;;;;;10580758;27;20223;-79
2021/03/10 16:25:08;;;;;;;20.00;11.40;;;;;;;;;;10588412;27;20203;-79
2021/03/10 16:30:10;;;;;;;21.30;11.67;;;;;;;;;;10549733;27;20418;-83
2021/03/10 16:35:11;;;;;;;19.37;11.17;;;;;;;;;;10583007;28;20187;-82
2021/03/10 16:40:14;;;;;;;20.20;11.03;;;;;;;;;;10567760;27;20220;-81
2021/03/10 16:45:16;;;;;;;20.77;11.97;;;;;;;;;;10572892;28;20225;-78
2021/03/10 16:50:26;;;;;;;18.97;10.43;;;;;;;;;;10578977;28;20206;-79
2021/03/10 16:55:29;;;;;;;19.57;11.30;;;;;;;;;;10588035;28;20195;-80
2021/03/10 17:00:31;;;;;;;22.20;11.67;;;;;;;;;;10589672;28;20575;-81
2021/03/10 17:05:33;;;;;;;22.20;11.60;;;;;;;;;;10586322;28;20540;-77
2021/03/10 17:10:36;;;;;;;21.13;11.77;;;;;;;;;;10585900;28;20218;-80
2021/03/10 17:15:38;;;;;;;21.23;11.10;;;;;;;;;;10583692;28;20195;-78
2021/03/10 17:20:47;;;;;;;23.47;12.43;;;;;;;;;;10587365;28;20211;-77
2021/03/10 17:25:50;;;;;;;24.60;11.97;;;;;;;;;;10591035;28;20195;-78
2021/03/10 17:30:52;;;;;;;29.27;12.50;;;;;;;;;;10577350;28;20299;-77
2021/03/10 17:35:54;;;;;;;24.10;12.57;;;;;;;;;;10587353;28;20209;-80
2021/03/10 17:40:56;;;;;;;27.47;12.80;;;;;;;;;;10587880;28;20389;-79
2021/03/10 17:45:58;;;;;;;26.07;12.07;;;;;;;;;;10584066;27;20203;-78
2021/03/10 17:51:00;;;;;;;28.20;12.87;;;;;;;;;;10587924;27;20207;-78
2021/03/10 17:56:06;;;;;;;25.80;13.30;;;;;;;;;;10586948;27;20194;-79
2021/03/10 18:01:07;;;;;;;30.10;12.00;;;;;;;;;;10581579;27;20215;-78
2021/03/10 18:06:09;;;;;;;25.57;13.10;;;;;;;;;;10567352;28;20285;-78
2021/03/10 18:11:12;;;;;;;24.77;13.10;;;;;;;;;;10582957;27;20208;-79
2021/03/10 18:16:14;;;;;;;24.97;13.43;;;;;;;;;;10573179;28;20248;-79
2021/03/10 18:21:35;;;;;;;21.17;12.10;;;;;;;;;;10551788;28;20276;-78
2021/03/10 18:26:39;;;;;;;28.07;13.47;;;;;;;;;;10580400;27;20217;-78
2021/03/10 18:31:40;;;;;;;28.53;12.97;;;;;;;;;;10573683;27;20212;-80
2021/03/10 19:38:36;;;;;;;23.23;12.43;;;;;;;;;;10591648;27;20765;-79
2021/03/10 19:43:37;;;;;;;22.70;12.43;;;;;;;;;;10607357;28;20645;-80
2021/03/10 19:48:40;;;;;;;19.43;10.77;;;;;;;;;;10614864;28;20226;-82
2021/03/10 19:53:43;;;;;;;20.67;9.90;;;;;;;;;;10612406;28;20663;-80
2021/03/10 19:58:44;;;;;;;18.57;9.23;;;;;;;;;;10602630;27;20215;-80
2021/03/10 20:03:46;;;;;;;22.90;12.63;;;;;;;;;;10591042;28;20724;-80
2021/03/10 20:08:48;;;;;;;18.80;9.67;;;;;;;;;;10584849;28;20223;-79
2021/03/10 20:13:50;;;;;;;20.13;10.33;;;;;;;;;;10571046;27;20538;-80
2021/03/10 20:18:52;;;;;;;20.23;10.47;;;;;;;;;;10598467;27;20211;-78
2021/03/10 20:23:54;;;;;;;22.13;11.63;;;;;;;;;;10585739;28;20215;-79
2021/03/10 20:28:56;;;;;;;21.60;11.53;;;;;;;;;;10562521;28;20242;-78
2021/03/10 20:34:00;;;;;;;24.17;12.23;;;;;;;;;;10579084;28;20199;-79
2021/03/10 20:39:03;;;;;;;16.83;8.50;;;;;;;;;;10581473;28;20243;-81
2021/03/10 20:44:05;;;;;;;22.17;10.47;;;;;;;;;;10579076;28;20207;-81
2021/03/10 20:49:07;;;;;;;16.70;8.17;;;;;;;;;;10568178;28;20236;-80
2021/03/10 20:54:09;;;;;;;21.60;11.10;;;;;;;;;;10580101;28;20255;-80
2021/03/10 20:59:11;;;;;;;23.20;11.80;;;;;;;;;;10564596;28;20401;-80
2021/03/10 21:04:13;;;;;;;18.63;10.10;;;;;;;;;;10562961;28;20226;-81
2021/03/10 21:09:16;;;;;;;18.83;9.10;;;;;;;;;;10582560;28;20237;-80
2021/03/10 21:14:17;;;;;;;20.73;10.23;;;;;;;;;;10583652;27;20623;-80
2021/03/10 21:19:19;;;;;;;14.40;6.50;;;;;;;;;;10580670;27;20612;-78
2021/03/10 21:24:22;;;;;;;19.10;9.80;;;;;;;;;;10578313;28;20765;-79
2021/03/10 21:29:24;;;;;;;16.70;7.70;;;;;;;;;;10574150;27;20246;-79
2021/03/10 21:34:25;;;;;;;17.83;9.60;;;;;;;;;;10514111;28;20316;-79
2021/03/10 21:39:28;;;;;;;17.13;8.63;;;;;;;;;;10513151;28;20232;-79
2021/03/10 21:44:29;;;;;;;17.27;8.90;;;;;;;;;;10502771;28;20220;-81
2021/03/10 21:49:31;;;;;;;17.83;9.50;;;;;;;;;;10525135;28;20222;-78
2021/03/10 21:54:34;;;;;;;17.07;8.43;;;;;;;;;;10511241;28;20271;-79
2021/03/10 21:59:36;;;;;;;15.50;7.53;;;;;;;;;;10527242;28;20328;-79
2021/03/10 22:04:37;;;;;;;16.70;7.20;;;;;;;;;;10510450;28;20764;-80
2021/03/10 22:09:40;;;;;;;10.90;5.33;;;;;;;;;;10531345;28;20610;-79
2021/03/10 22:14:41;;;;;;;16.90;8.37;;;;;;;;;;10556411;28;20684;-79
2021/03/10 22:19:43;;;;;;;16.83;9.90;;;;;;;;;;10539793;28;20780;-72
2021/03/10 22:24:46;;;;;;;13.53;6.90;;;;;;;;;;10527470;28;20763;-73
2021/03/10 22:29:48;;;;;;;9.27;4.73;;;;;;;;;;10530405;28;20224;-78
2021/03/10 22:34:50;;;;;;;13.63;6.93;;;;;;;;;;10536067;28;20537;-79
2021/03/10 22:39:53;;;;;;;14.67;7.43;;;;;;;;;;10515995;28;20783;-79
2021/03/10 22:44:55;;;;;;;15.80;8.63;;;;;;;;;;10538128;28;20480;-79
2021/03/10 22:49:56;;;;;;;14.07;6.83;;;;;;;;;;10528839;28;20224;-79
2021/03/10 22:55:00;;;;;;;13.87;7.00;;;;;;;;;;10548010;28;20225;-78
2021/03/10 23:00:04;;;;;;;10.57;5.33;;;;;;;;;;10520775;28;20216;-78
2021/03/10 23:05:06;;;;;;;11.90;5.70;;;;;;;;;;10540518;28;20253;-79
2021/03/10 23:10:10;;;;;;;10.63;5.17;;;;;;;;;;10513815;28;20219;-79
2021/03/10 23:15:13;;;;;;;13.70;6.30;;;;;;;;;;10528005;28;20245;-79
2021/03/10 23:20:15;;;;;;;13.37;6.40;;;;;;;;;;10530270;28;20207;-79
2021/03/10 23:25:28;;;;;;;12.53;6.20;;;;;;;;;;10563355;28;20241;-80
2021/03/10 23:30:30;;;;;;;14.53;5.83;;;;;;;;;;10561054;28;20228;-79
2021/03/10 23:35:32;;;;;;;12.33;5.70;;;;;;;;;;10565984;28;20640;-80
2021/03/10 23:40:36;;;;;;;10.87;5.00;;;;;;;;;;10556949;28;20223;-79
2021/03/10 23:45:38;;;;;;;10.00;5.40;;;;;;;;;;10563301;28;20265;-80
2021/03/10 23:50:41;;;;;;;9.03;3.90;;;;;;;;;;10559285;28;20241;-80
2021/03/10 23:55:49;;;;;;;11.37;5.30;;;;;;;;;;10551263;28;20192;-80
